Time;durP1;ratioP1;P1;durP2;ratioP2;P2;SDS_P1;SDS_P2;PMS_P1;PMS_P2;Temp;Humidity;BMP_temperature;BMP_pressure;BME280_temperature;BME280_humidity;BME280_pressure;Samples;Min_cycle;Max_cycle;Signal;HPM_P1;HPM_P2
2022/03/15 00:00:58;;;;;;;9.02;1.60;;;;;;;;;;4956913;29;20077;-65
2022/03/15 00:03:24;;;;;;;4.00;1.75;;;;;;;;;;4957260;29;20031;-65
2022/03/15 00:05:50;;;;;;;5.57;1.60;;;;;;;;;;4956974;29;20482;-65
2022/03/15 00:08:19;;;;;;;2.30;1.60;;;;;;;;;;4957218;29;20027;-65
2022/03/15 00:10:46;;;;;;;6.22;1.70;;;;;;;;;;4957214;29;20043;-65
2022/03/15 00:13:12;;;;;;;9.52;1.60;;;;;;;;;;4957209;29;20514;-65
2022/03/15 00:15:42;;;;;;;5.53;1.90;;;;;;;;;;4957146;29;20043;-65
2022/03/15 00:18:08;;;;;;;5.35;1.55;;;;;;;;;;4957111;28;20034;-66
2022/03/15 00:20:34;;;;;;;3.10;1.60;;;;;;;;;;4957045;29;20031;-66
2022/03/15 00:23:00;;;;;;;4.25;1.40;;;;;;;;;;4956696;29;20027;-66
2022/03/15 00:25:27;;;;;;;4.70;1.48;;;;;;;;;;4955712;29;20499;-66
2022/03/15 00:27:54;;;;;;;2.03;1.30;;;;;;;;;;4949000;29;20058;-66
2022/03/15 00:30:21;;;;;;;5.88;1.70;;;;;;;;;;4956958;29;20055;-66
2022/03/15 00:32:48;;;;;;;2.78;1.40;;;;;;;;;;4941178;28;20035;-65
2022/03/15 00:35:18;;;;;;;2.17;1.30;;;;;;;;;;4976076;28;20051;-65
2022/03/15 00:37:48;;;;;;;3.78;1.23;;;;;;;;;;4976026;28;20515;-65
2022/03/15 00:40:15;;;;;;;4.90;1.70;;;;;;;;;;4976018;28;20038;-64
2022/03/15 00:42:42;;;;;;;1.38;1.27;;;;;;;;;;4976049;28;20031;-65
2022/03/15 00:45:08;;;;;;;2.55;1.45;;;;;;;;;;4958604;28;20110;-65
2022/03/15 00:47:34;;;;;;;3.20;1.45;;;;;;;;;;4975938;28;20023;-65
2022/03/15 00:50:00;;;;;;;3.63;1.70;;;;;;;;;;4975626;28;20109;-66
2022/03/15 00:52:27;;;;;;;3.97;1.33;;;;;;;;;;4975750;28;20526;-66
2022/03/15 00:54:53;;;;;;;2.35;1.23;;;;;;;;;;4975667;28;20034;-65
2022/03/15 00:57:19;;;;;;;3.55;1.67;;;;;;;;;;4965251;28;20039;-66
2022/03/15 00:59:45;;;;;;;8.32;1.70;;;;;;;;;;4956330;29;20482;-67
2022/03/15 01:02:11;;;;;;;2.10;1.40;;;;;;;;;;4955733;29;20035;-66
2022/03/15 01:04:37;;;;;;;2.38;1.05;;;;;;;;;;4956291;29;20094;-66
2022/03/15 01:07:03;;;;;;;5.90;1.77;;;;;;;;;;4955694;29;20093;-66
2022/03/15 01:09:29;;;;;;;4.95;1.60;;;;;;;;;;4955837;28;20027;-65
2022/03/15 01:11:56;;;;;;;2.50;1.50;;;;;;;;;;4938767;29;20027;-65
2022/03/15 01:14:22;;;;;;;7.03;1.67;;;;;;;;;;4938236;29;20543;-65
2022/03/15 01:16:48;;;;;;;5.50;1.40;;;;;;;;;;4938698;29;20774;-65
2022/03/15 01:19:14;;;;;;;3.65;1.30;;;;;;;;;;4955650;28;20392;-65
2022/03/15 01:21:40;;;;;;;1.73;1.23;;;;;;;;;;4955764;29;20574;-65
2022/03/15 01:24:07;;;;;;;3.33;1.25;;;;;;;;;;4955841;29;20107;-64
2022/03/15 01:26:33;;;;;;;2.40;1.15;;;;;;;;;;4955814;29;20046;-65
2022/03/15 01:29:00;;;;;;;3.15;1.40;;;;;;;;;;4955904;29;20101;-65
2022/03/15 01:31:26;;;;;;;3.58;1.50;;;;;;;;;;4937754;29;20039;-65
2022/03/15 01:33:52;;;;;;;3.63;1.70;;;;;;;;;;4955662;29;20227;-65
2022/03/15 01:36:18;;;;;;;2.03;1.30;;;;;;;;;;4955677;29;20551;-65
2022/03/15 01:38:44;;;;;;;3.60;1.30;;;;;;;;;;4955512;29;20456;-67
2022/03/15 01:41:10;;;;;;;2.72;1.40;;;;;;;;;;4955217;29;20418;-66
2022/03/15 01:43:39;;;;;;;4.28;1.55;;;;;;;;;;4938444;29;20534;-67
2022/03/15 01:46:06;;;;;;;2.70;1.30;;;;;;;;;;4955446;29;20379;-66
2022/03/15 01:48:31;;;;;;;2.58;1.50;;;;;;;;;;4954297;29;20082;-66
2022/03/15 01:50:58;;;;;;;2.22;1.40;;;;;;;;;;4955215;29;20706;-65
2022/03/15 01:53:25;;;;;;;4.00;1.30;;;;;;;;;;4955533;29;20521;-66
2022/03/15 01:55:51;;;;;;;3.92;1.50;;;;;;;;;;4955395;29;20102;-66
2022/03/15 01:58:17;;;;;;;2.22;1.20;;;;;;;;;;4955247;29;20375;-65
2022/03/15 02:00:44;;;;;;;4.28;1.10;;;;;;;;;;4954891;29;20090;-66
2022/03/15 02:03:10;;;;;;;1.95;1.23;;;;;;;;;;4954926;29;20030;-66
2022/03/15 02:05:36;;;;;;;2.20;1.38;;;;;;;;;;4955312;29;20019;-66
2022/03/15 02:08:10;;;;;;;2.13;1.48;;;;;;;;;;4938046;29;20030;-66
2022/03/15 02:10:36;;;;;;;2.25;1.40;;;;;;;;;;4955048;29;20122;-67
2022/03/15 02:13:02;;;;;;;2.33;1.25;;;;;;;;;;4954955;29;20111;-66
2022/03/15 02:15:28;;;;;;;2.22;1.30;;;;;;;;;;4954835;29;20456;-65
2022/03/15 02:17:54;;;;;;;3.20;1.70;;;;;;;;;;4954042;29;20034;-65
2022/03/15 02:20:21;;;;;;;3.30;1.52;;;;;;;;;;4954220;28;20028;-65
2022/03/15 02:22:47;;;;;;;2.65;1.38;;;;;;;;;;4954791;29;20102;-66
2022/03/15 02:25:13;;;;;;;2.47;1.58;;;;;;;;;;4954584;29;20467;-66
2022/03/15 02:27:39;;;;;;;2.53;1.48;;;;;;;;;;4954854;28;20031;-65
2022/03/15 02:30:06;;;;;;;2.80;1.50;;;;;;;;;;4954852;29;20036;-66
2022/03/15 02:32:32;;;;;;;2.67;1.30;;;;;;;;;;4954579;28;20034;-66
2022/03/15 02:34:58;;;;;;;2.47;1.20;;;;;;;;;;4959154;28;20078;-66
2022/03/15 02:37:24;;;;;;;1.55;1.20;;;;;;;;;;4954682;29;20027;-66
2022/03/15 02:39:51;;;;;;;2.17;1.10;;;;;;;;;;4954570;29;20475;-65
2022/03/15 02:42:17;;;;;;;2.63;1.40;;;;;;;;;;4954430;29;20035;-66
2022/03/15 02:44:43;;;;;;;1.90;1.35;;;;;;;;;;4954405;29;20043;-66
2022/03/15 02:47:10;;;;;;;3.50;1.40;;;;;;;;;;4954396;28;20530;-66
2022/03/15 02:49:36;;;;;;;1.63;1.20;;;;;;;;;;4954372;29;20490;-66
2022/03/15 02:52:02;;;;;;;5.00;1.13;;;;;;;;;;4953405;29;20050;-65
2022/03/15 02:54:28;;;;;;;2.35;1.40;;;;;;;;;;4954435;29;20031;-66
2022/03/15 02:56:54;;;;;;;3.08;1.33;;;;;;;;;;4954258;29;20035;-66
2022/03/15 02:59:20;;;;;;;1.73;1.20;;;;;;;;;;4954501;29;20031;-65
2022/03/15 03:01:48;;;;;;;3.67;1.25;;;;;;;;;;4936668;29;20031;-65
2022/03/15 03:04:15;;;;;;;3.72;1.60;;;;;;;;;;4954271;29;20470;-65
2022/03/15 03:06:41;;;;;;;2.65;1.55;;;;;;;;;;4935747;29;20059;-65
2022/03/15 03:09:07;;;;;;;5.93;1.42;;;;;;;;;;4954184;29;20427;-66
2022/03/15 03:11:33;;;;;;;3.35;1.40;;;;;;;;;;4953886;29;20035;-66
2022/03/15 03:14:00;;;;;;;1.73;1.17;;;;;;;;;;4954141;29;20129;-66
2022/03/15 03:16:27;;;;;;;2.30;1.10;;;;;;;;;;4953935;29;20379;-66
2022/03/15 03:18:57;;;;;;;4.30;1.65;;;;;;;;;;4953888;28;20368;-67
2022/03/15 03:21:25;;;;;;;1.55;1.30;;;;;;;;;;4953832;29;20087;-67
2022/03/15 03:23:53;;;;;;;2.55;1.58;;;;;;;;;;4952923;29;20051;-67
2022/03/15 03:26:19;;;;;;;2.58;1.52;;;;;;;;;;4954266;29;20093;-66
2022/03/15 03:28:45;;;;;;;1.40;1.17;;;;;;;;;;4954020;29;20034;-65
2022/03/15 03:31:11;;;;;;;2.17;1.20;;;;;;;;;;4953778;29;20035;-66
2022/03/15 03:33:38;;;;;;;1.58;1.35;;;;;;;;;;4964535;28;20030;-66
2022/03/15 03:36:05;;;;;;;3.33;1.20;;;;;;;;;;4977121;28;20114;-65
2022/03/15 03:38:31;;;;;;;2.65;1.50;;;;;;;;;;4976974;28;20398;-65
2022/03/15 03:40:57;;;;;;;1.98;1.50;;;;;;;;;;4965229;28;20130;-66
2022/03/15 03:43:24;;;;;;;1.85;1.27;;;;;;;;;;4957651;29;20028;-66
2022/03/15 03:45:50;;;;;;;2.90;1.40;;;;;;;;;;4957904;29;20029;-66
2022/03/15 03:48:16;;;;;;;2.60;1.48;;;;;;;;;;4957537;28;20082;-66
2022/03/15 03:50:43;;;;;;;1.65;1.10;;;;;;;;;;4957556;29;20030;-68
2022/03/15 03:53:09;;;;;;;3.97;1.45;;;;;;;;;;4957880;29;20031;-66
2022/03/15 03:55:36;;;;;;;3.97;1.20;;;;;;;;;;4957389;29;20107;-67
2022/03/15 03:58:02;;;;;;;2.45;1.30;;;;;;;;;;4957485;29;20554;-66
2022/03/15 04:00:29;;;;;;;2.28;1.30;;;;;;;;;;4957131;29;20471;-66
2022/03/15 04:02:57;;;;;;;1.67;1.10;;;;;;;;;;4957304;29;20026;-66
2022/03/15 04:05:24;;;;;;;4.10;1.27;;;;;;;;;;4939721;29;20028;-66
2022/03/15 04:07:50;;;;;;;1.55;1.27;;;;;;;;;;4957333;29;20027;-66
2022/03/15 04:10:17;;;;;;;2.05;1.42;;;;;;;;;;4957133;29;20023;-66
2022/03/15 04:12:44;;;;;;;1.70;1.40;;;;;;;;;;4956305;29;20034;-66
2022/03/15 04:15:10;;;;;;;7.53;1.25;;;;;;;;;;4956986;29;20059;-65
2022/03/15 04:17:37;;;;;;;4.20;1.27;;;;;;;;;;4957325;28;20081;-66
2022/03/15 04:20:03;;;;;;;2.25;1.25;;;;;;;;;;4957318;29;20124;-66
2022/03/15 04:22:29;;;;;;;5.70;1.20;;;;;;;;;;4956715;29;20475;-66
2022/03/15 04:24:55;;;;;;;2.83;1.40;;;;;;;;;;4956971;29;20051;-66
2022/03/15 04:27:22;;;;;;;1.52;1.20;;;;;;;;;;4957207;29;20073;-65
2022/03/15 04:29:48;;;;;;;4.40;1.00;;;;;;;;;;4957138;29;20023;-66
2022/03/15 04:32:14;;;;;;;3.22;1.27;;;;;;;;;;4956800;29;20093;-66
2022/03/15 04:34:40;;;;;;;1.83;1.40;;;;;;;;;;4956878;29;20031;-65
2022/03/15 04:37:06;;;;;;;1.80;1.40;;;;;;;;;;4956631;29;20114;-65
2022/03/15 04:39:33;;;;;;;2.88;1.45;;;;;;;;;;4956801;29;20028;-65
2022/03/15 04:41:59;;;;;;;2.88;1.23;;;;;;;;;;4955564;29;20083;-65
2022/03/15 04:44:25;;;;;;;3.45;1.15;;;;;;;;;;4938785;29;20027;-65
2022/03/15 04:46:51;;;;;;;1.77;1.40;;;;;;;;;;4956714;29;20054;-64
2022/03/15 04:49:19;;;;;;;5.63;1.40;;;;;;;;;;4956361;28;20031;-64
2022/03/15 04:51:46;;;;;;;3.17;1.70;;;;;;;;;;4956362;29;20078;-65
2022/03/15 04:54:12;;;;;;;4.72;1.20;;;;;;;;;;4939823;29;20069;-65
2022/03/15 04:56:39;;;;;;;2.55;1.58;;;;;;;;;;4956440;29;20040;-65
2022/03/15 04:59:05;;;;;;;1.58;1.20;;;;;;;;;;4956221;29;20023;-65
2022/03/15 05:01:31;;;;;;;5.57;1.55;;;;;;;;;;4955698;29;20035;-64
2022/03/15 05:03:57;;;;;;;2.22;1.30;;;;;;;;;;4956185;29;20020;-65
2022/03/15 05:06:23;;;;;;;2.40;1.70;;;;;;;;;;4938388;29;20034;-65
2022/03/15 05:08:49;;;;;;;2.50;1.40;;;;;;;;;;4956223;29;20076;-65
2022/03/15 05:11:18;;;;;;;1.77;1.42;;;;;;;;;;4955131;29;20059;-66
2022/03/15 05:13:45;;;;;;;2.60;1.42;;;;;;;;;;4956461;29;20027;-66
2022/03/15 05:16:13;;;;;;;1.40;1.23;;;;;;;;;;4955786;29;20127;-66
2022/03/15 05:18:40;;;;;;;4.80;1.60;;;;;;;;;;4955826;28;20102;-67
2022/03/15 05:21:07;;;;;;;7.28;1.35;;;;;;;;;;4955675;29;20028;-66
2022/03/15 05:23:33;;;;;;;1.80;1.27;;;;;;;;;;4955922;29;20548;-66
2022/03/15 05:25:59;;;;;;;3.65;1.40;;;;;;;;;;4955848;29;20517;-67
2022/03/15 05:28:25;;;;;;;1.40;1.30;;;;;;;;;;4937804;29;20034;-65
2022/03/15 05:30:51;;;;;;;1.40;1.20;;;;;;;;;;4963395;28;20097;-65
2022/03/15 05:33:17;;;;;;;3.15;1.50;;;;;;;;;;4963705;28;20019;-66
2022/03/15 05:35:43;;;;;;;4.90;1.60;;;;;;;;;;4966553;28;20034;-65
2022/03/15 05:38:10;;;;;;;2.95;1.42;;;;;;;;;;4965565;28;20023;-65
2022/03/15 05:40:36;;;;;;;5.00;1.40;;;;;;;;;;4964438;28;20023;-66
2022/03/15 05:43:02;;;;;;;7.03;1.40;;;;;;;;;;4965297;28;20026;-65
2022/03/15 05:45:28;;;;;;;5.07;1.50;;;;;;;;;;4967856;28;20740;-65
2022/03/15 05:47:54;;;;;;;3.55;1.60;;;;;;;;;;4961183;28;20030;-65
2022/03/15 05:50:21;;;;;;;3.08;1.73;;;;;;;;;;4964969;28;20018;-64
2022/03/15 05:52:47;;;;;;;4.57;1.45;;;;;;;;;;4965556;28;20074;-65
2022/03/15 05:55:13;;;;;;;2.33;1.58;;;;;;;;;;4945356;28;20102;-65
2022/03/15 05:57:39;;;;;;;1.30;1.20;;;;;;;;;;4974968;28;20065;-64
2022/03/15 06:00:06;;;;;;;12.00;1.60;;;;;;;;;;4974599;28;20033;-65
2022/03/15 06:02:32;;;;;;;10.85;2.10;;;;;;;;;;4958490;28;20039;-69
2022/03/15 06:04:59;;;;;;;17.10;3.75;;;;;;;;;;4974454;28;20077;-69
2022/03/15 06:07:26;;;;;;;13.80;1.95;;;;;;;;;;4974101;28;20026;-68
2022/03/15 06:09:52;;;;;;;7.70;1.77;;;;;;;;;;4976521;28;20062;-69
2022/03/15 06:12:20;;;;;;;13.68;2.75;;;;;;;;;;4974095;28;20026;-67
2022/03/15 06:14:46;;;;;;;28.25;3.40;;;;;;;;;;4973972;28;20414;-68
2022/03/15 06:17:12;;;;;;;26.73;3.67;;;;;;;;;;4954184;28;20557;-65
2022/03/15 06:19:38;;;;;;;40.65;4.85;;;;;;;;;;4954997;28;20027;-68
2022/03/15 06:22:04;;;;;;;68.40;5.25;;;;;;;;;;4956228;28;20035;-65
2022/03/15 06:24:31;;;;;;;45.38;5.15;;;;;;;;;;4953928;29;20570;-68
2022/03/15 06:26:58;;;;;;;46.55;5.00;;;;;;;;;;4954254;28;20187;-69
2022/03/15 06:29:24;;;;;;;55.67;4.75;;;;;;;;;;4954400;28;20027;-68
2022/03/15 06:31:51;;;;;;;56.97;4.28;;;;;;;;;;4954222;29;20034;-68
2022/03/15 06:34:17;;;;;;;38.15;4.47;;;;;;;;;;4967922;28;20333;-72
2022/03/15 06:36:43;;;;;;;34.88;4.70;;;;;;;;;;4973684;28;20494;-69
2022/03/15 06:39:09;;;;;;;40.05;5.35;;;;;;;;;;4958241;28;20031;-69
2022/03/15 06:41:37;;;;;;;31.23;4.00;;;;;;;;;;4975427;28;20027;-67
2022/03/15 06:44:03;;;;;;;34.15;4.13;;;;;;;;;;4968675;28;20427;-68
2022/03/15 06:46:30;;;;;;;18.13;3.45;;;;;;;;;;4954005;29;20042;-69
2022/03/15 06:48:56;;;;;;;16.80;3.05;;;;;;;;;;4954397;28;20074;-70
2022/03/15 06:51:22;;;;;;;18.02;3.05;;;;;;;;;;4953324;29;20129;-70
2022/03/15 06:53:48;;;;;;;26.08;3.78;;;;;;;;;;4954010;29;20098;-70
2022/03/15 06:56:14;;;;;;;14.15;3.47;;;;;;;;;;4953789;29;20356;-72
2022/03/15 06:58:40;;;;;;;19.73;3.22;;;;;;;;;;4954036;29;20174;-71
2022/03/15 07:01:06;;;;;;;11.02;3.80;;;;;;;;;;4953959;29;20157;-72
2022/03/15 07:03:34;;;;;;;15.90;2.97;;;;;;;;;;4952847;29;20031;-71
2022/03/15 07:06:00;;;;;;;14.70;3.63;;;;;;;;;;4954167;28;20539;-72
2022/03/15 07:08:26;;;;;;;20.85;3.47;;;;;;;;;;4953686;29;20493;-72
2022/03/15 07:10:53;;;;;;;20.33;3.33;;;;;;;;;;4954557;29;20455;-72
2022/03/15 07:13:19;;;;;;;16.38;3.00;;;;;;;;;;4953996;29;20026;-72
2022/03/15 07:15:45;;;;;;;15.45;3.30;;;;;;;;;;4954156;29;20035;-72
2022/03/15 07:18:11;;;;;;;16.00;3.60;;;;;;;;;;4937239;29;20090;-73
2022/03/15 07:20:37;;;;;;;12.20;3.15;;;;;;;;;;4954290;29;20427;-72
2022/03/15 07:23:03;;;;;;;19.25;3.15;;;;;;;;;;4954224;29;20027;-72
2022/03/15 07:25:29;;;;;;;13.40;2.80;;;;;;;;;;4953978;29;20063;-73
2022/03/15 07:27:56;;;;;;;13.85;2.95;;;;;;;;;;4946944;29;20040;-73
2022/03/15 07:30:23;;;;;;;12.63;2.90;;;;;;;;;;4935113;29;20050;-73
2022/03/15 07:32:49;;;;;;;17.70;3.20;;;;;;;;;;4933533;29;20110;-72
2022/03/15 07:35:15;;;;;;;7.00;2.90;;;;;;;;;;4933387;29;20379;-73
2022/03/15 07:37:49;;;;;;;12.88;2.95;;;;;;;;;;4934917;29;20043;-72
2022/03/15 07:40:15;;;;;;;12.95;2.70;;;;;;;;;;4934821;29;20055;-73
2022/03/15 07:42:41;;;;;;;6.00;3.05;;;;;;;;;;4933483;29;20028;-72
2022/03/15 07:45:07;;;;;;;6.72;2.80;;;;;;;;;;4943545;28;20027;-72
2022/03/15 07:47:33;;;;;;;9.65;3.08;;;;;;;;;;4953812;28;20066;-73
2022/03/15 07:49:59;;;;;;;8.02;2.90;;;;;;;;;;4954011;28;20027;-72
2022/03/15 07:52:25;;;;;;;10.50;2.75;;;;;;;;;;4960959;28;20736;-71
2022/03/15 07:54:51;;;;;;;6.22;2.90;;;;;;;;;;4937009;29;20027;-73
2022/03/15 07:57:17;;;;;;;8.40;3.10;;;;;;;;;;4954077;29;20363;-72
2022/03/15 07:59:43;;;;;;;6.70;2.72;;;;;;;;;;4954051;29;20114;-73
2022/03/15 08:02:09;;;;;;;6.45;2.75;;;;;;;;;;4953720;29;20031;-73
2022/03/15 08:04:35;;;;;;;12.63;3.30;;;;;;;;;;4953784;29;20378;-72
2022/03/15 08:07:02;;;;;;;7.93;2.65;;;;;;;;;;4954037;29;20106;-72
2022/03/15 08:09:27;;;;;;;8.07;2.38;;;;;;;;;;4954088;29;20031;-72
2022/03/15 08:11:53;;;;;;;8.40;2.70;;;;;;;;;;4953653;29;20442;-72
2022/03/15 08:14:19;;;;;;;9.50;3.08;;;;;;;;;;4953343;29;20028;-73
2022/03/15 08:16:45;;;;;;;6.32;2.53;;;;;;;;;;4952776;28;20455;-73
2022/03/15 08:19:12;;;;;;;5.13;2.67;;;;;;;;;;4937429;29;20036;-72
2022/03/15 08:21:38;;;;;;;5.82;2.30;;;;;;;;;;4957406;29;20039;-73
2022/03/15 08:24:04;;;;;;;9.15;2.63;;;;;;;;;;4957166;29;20379;-73
2022/03/15 08:26:30;;;;;;;6.05;2.33;;;;;;;;;;4957339;29;20039;-72
2022/03/15 08:28:56;;;;;;;6.38;2.60;;;;;;;;;;4939993;29;20023;-73
2022/03/15 08:31:22;;;;;;;10.00;2.45;;;;;;;;;;4956984;29;20388;-77
2022/03/15 08:33:48;;;;;;;6.00;2.60;;;;;;;;;;4939870;29;20039;-74
2022/03/15 08:36:14;;;;;;;5.65;2.53;;;;;;;;;;4956948;29;20383;-72
2022/03/15 08:38:41;;;;;;;5.30;2.50;;;;;;;;;;4957501;29;20023;-72
2022/03/15 08:41:07;;;;;;;6.05;2.58;;;;;;;;;;4957115;29;20035;-76
2022/03/15 08:43:33;;;;;;;11.38;2.60;;;;;;;;;;4956901;29;20019;-71
2022/03/15 08:45:59;;;;;;;8.32;2.80;;;;;;;;;;4956265;29;20123;-74
2022/03/15 08:48:25;;;;;;;3.95;2.47;;;;;;;;;;4956771;28;20035;-72
2022/03/15 08:50:51;;;;;;;6.00;2.70;;;;;;;;;;4956038;29;20554;-70
2022/03/15 08:53:19;;;;;;;7.07;2.38;;;;;;;;;;4956604;29;20033;-72
2022/03/15 08:55:45;;;;;;;4.80;2.33;;;;;;;;;;4956727;29;20034;-71
2022/03/15 08:58:11;;;;;;;4.85;2.25;;;;;;;;;;4956661;29;20027;-70
2022/03/15 09:00:37;;;;;;;5.15;3.08;;;;;;;;;;4939405;29;20114;-70
2022/03/15 09:03:03;;;;;;;3.90;2.30;;;;;;;;;;4956415;29;20111;-72
2022/03/15 09:05:29;;;;;;;6.03;2.38;;;;;;;;;;4956410;29;20035;-71
2022/03/15 09:07:55;;;;;;;3.42;2.55;;;;;;;;;;4938813;29;20038;-71
2022/03/15 09:10:21;;;;;;;7.72;2.35;;;;;;;;;;4939419;29;20036;-71
2022/03/15 09:12:49;;;;;;;4.95;2.28;;;;;;;;;;4939149;29;20192;-71
2022/03/15 09:15:15;;;;;;;4.53;2.50;;;;;;;;;;4938900;29;20023;-71
2022/03/15 09:17:41;;;;;;;5.28;2.70;;;;;;;;;;4939043;29;20027;-71
2022/03/15 09:20:08;;;;;;;5.80;2.67;;;;;;;;;;4938797;29;20027;-72
2022/03/15 09:22:34;;;;;;;8.20;2.78;;;;;;;;;;4952733;29;20028;-71
2022/03/15 09:25:00;;;;;;;5.60;2.70;;;;;;;;;;4952032;29;20076;-70
2022/03/15 09:27:26;;;;;;;3.85;2.45;;;;;;;;;;4956266;29;20481;-71
2022/03/15 09:29:54;;;;;;;4.50;2.20;;;;;;;;;;4956178;28;20027;-71
2022/03/15 09:32:20;;;;;;;3.03;2.55;;;;;;;;;;4956053;29;20027;-69
2022/03/15 09:34:46;;;;;;;4.22;2.28;;;;;;;;;;4973328;28;20029;-71
2022/03/15 09:37:12;;;;;;;3.90;2.20;;;;;;;;;;4975142;28;20043;-72
2022/03/15 09:39:38;;;;;;;8.43;2.97;;;;;;;;;;4973274;28;20023;-72
2022/03/15 09:42:06;;;;;;;5.63;2.30;;;;;;;;;;4938653;29;20027;-72
2022/03/15 09:44:34;;;;;;;3.65;2.00;;;;;;;;;;4955940;29;20031;-71
2022/03/15 09:47:03;;;;;;;5.03;2.20;;;;;;;;;;4955986;28;20132;-70
2022/03/15 09:49:30;;;;;;;4.25;2.30;;;;;;;;;;4955799;29;20035;-72
2022/03/15 09:51:56;;;;;;;3.88;1.98;;;;;;;;;;4954754;29;20031;-72
2022/03/15 09:54:24;;;;;;;2.25;1.88;;;;;;;;;;4955857;29;20086;-70
2022/03/15 09:56:50;;;;;;;2.53;2.10;;;;;;;;;;4954694;29;20046;-71
2022/03/15 09:59:17;;;;;;;4.53;2.42;;;;;;;;;;4955509;29;20463;-72
2022/03/15 10:01:44;;;;;;;3.38;2.15;;;;;;;;;;4955703;29;20031;-70
2022/03/15 10:04:13;;;;;;;2.70;2.20;;;;;;;;;;4955909;29;20098;-71
2022/03/15 10:06:39;;;;;;;3.47;2.17;;;;;;;;;;4955646;29;20038;-72
2022/03/15 10:09:06;;;;;;;5.57;1.90;;;;;;;;;;4938216;29;20019;-71
2022/03/15 10:11:32;;;;;;;3.17;2.20;;;;;;;;;;4938039;29;20035;-71
2022/03/15 10:13:59;;;;;;;3.03;1.90;;;;;;;;;;4956043;29;20440;-70
2022/03/15 10:16:35;;;;;;;5.80;2.63;;;;;;;;;;4955535;29;20126;-71
2022/03/15 10:19:02;;;;;;;3.10;2.20;;;;;;;;;;4954769;28;20035;-71
2022/03/15 10:21:39;;;;;;;2.83;2.30;;;;;;;;;;4955347;29;20082;-73
2022/03/15 10:24:07;;;;;;;3.22;2.40;;;;;;;;;;4955241;29;20027;-72
2022/03/15 10:26:37;;;;;;;4.47;2.58;;;;;;;;;;4955485;29;20151;-70
2022/03/15 10:29:03;;;;;;;3.28;2.40;;;;;;;;;;4955602;29;20031;-71
2022/03/15 10:31:29;;;;;;;4.63;2.47;;;;;;;;;;4955035;29;20031;-70
2022/03/15 10:34:01;;;;;;;2.70;2.30;;;;;;;;;;4965912;28;20027;-71
2022/03/15 10:36:28;;;;;;;3.95;2.25;;;;;;;;;;4974532;28;20049;-71
2022/03/15 10:38:54;;;;;;;2.92;2.05;;;;;;;;;;4974485;28;20031;-70
2022/03/15 10:41:20;;;;;;;3.65;2.13;;;;;;;;;;4973993;28;20062;-70
2022/03/15 10:44:00;;;;;;;3.45;1.95;;;;;;;;;;4974010;28;20026;-72
2022/03/15 10:46:26;;;;;;;4.78;1.98;;;;;;;;;;4974415;28;20033;-72
2022/03/15 10:48:53;;;;;;;4.47;2.30;;;;;;;;;;4974202;28;20026;-70
2022/03/15 10:51:19;;;;;;;3.33;2.17;;;;;;;;;;4954728;28;20538;-71
2022/03/15 10:53:47;;;;;;;3.17;2.40;;;;;;;;;;4954753;29;20534;-71
2022/03/15 10:56:19;;;;;;;3.08;2.03;;;;;;;;;;4954674;29;20383;-71
2022/03/15 10:58:45;;;;;;;2.17;1.90;;;;;;;;;;4954715;29;20062;-70
2022/03/15 11:01:12;;;;;;;2.55;2.03;;;;;;;;;;4954411;29;20114;-71
2022/03/15 11:03:38;;;;;;;2.28;1.90;;;;;;;;;;4954788;29;20019;-70
2022/03/15 11:06:08;;;;;;;2.38;1.77;;;;;;;;;;4954156;29;20170;-70
2022/03/15 11:08:34;;;;;;;2.00;1.70;;;;;;;;;;4954331;29;20118;-70
2022/03/15 11:11:05;;;;;;;4.22;1.80;;;;;;;;;;4954449;29;20031;-71
2022/03/15 11:13:32;;;;;;;2.60;1.85;;;;;;;;;;4954468;29;20700;-71
2022/03/15 11:15:59;;;;;;;1.98;1.65;;;;;;;;;;4937627;29;20024;-70
2022/03/15 11:18:26;;;;;;;3.63;1.95;;;;;;;;;;4954513;28;20031;-71
2022/03/15 11:20:52;;;;;;;4.03;2.20;;;;;;;;;;4954071;29;20043;-72
2022/03/15 11:23:21;;;;;;;2.42;1.88;;;;;;;;;;4954432;29;20040;-70
2022/03/15 11:25:49;;;;;;;3.47;1.90;;;;;;;;;;4937072;29;20047;-71
2022/03/15 11:28:20;;;;;;;2.53;1.88;;;;;;;;;;4954474;29;20031;-71
2022/03/15 11:30:46;;;;;;;3.88;2.03;;;;;;;;;;4954660;29;20074;-72
2022/03/15 11:33:14;;;;;;;2.60;1.70;;;;;;;;;;4954179;29;20043;-71
2022/03/15 11:35:40;;;;;;;2.47;1.80;;;;;;;;;;4954628;29;20047;-72
2022/03/15 11:38:09;;;;;;;2.20;1.75;;;;;;;;;;4954085;29;20116;-70
2022/03/15 11:40:35;;;;;;;2.38;1.58;;;;;;;;;;4954978;29;20043;-73
2022/03/15 11:43:10;;;;;;;2.20;1.60;;;;;;;;;;4954608;29;20050;-72
2022/03/15 11:45:40;;;;;;;2.85;1.73;;;;;;;;;;4954650;29;20379;-73
2022/03/15 11:48:09;;;;;;;1.90;1.45;;;;;;;;;;4954568;28;20114;-75
2022/03/15 11:50:38;;;;;;;2.20;1.58;;;;;;;;;;4954324;29;20023;-73
2022/03/15 11:53:09;;;;;;;2.28;1.50;;;;;;;;;;4954105;28;20027;-74
2022/03/15 11:55:51;;;;;;;1.63;1.30;;;;;;;;;;4958005;29;20034;-74
2022/03/15 11:58:26;;;;;;;2.55;1.40;;;;;;;;;;4958626;29;20027;-77
2022/03/15 12:00:53;;;;;;;1.85;1.45;;;;;;;;;;4958247;29;20463;-76
2022/03/15 12:03:21;;;;;;;2.53;1.50;;;;;;;;;;4958413;29;20027;-75
2022/03/15 12:05:50;;;;;;;2.83;1.67;;;;;;;;;;4958736;29;20031;-71
2022/03/15 12:08:18;;;;;;;4.00;1.40;;;;;;;;;;4958207;29;20419;-74
2022/03/15 12:10:47;;;;;;;3.30;1.70;;;;;;;;;;4957080;29;20110;-73
2022/03/15 12:13:14;;;;;;;3.10;1.50;;;;;;;;;;4958369;29;20494;-74
2022/03/15 12:15:42;;;;;;;2.20;1.55;;;;;;;;;;4957957;29;20065;-73
2022/03/15 12:18:26;;;;;;;2.00;1.23;;;;;;;;;;4958091;29;20479;-75
2022/03/15 12:21:00;;;;;;;1.52;1.27;;;;;;;;;;4958084;29;20517;-75
2022/03/15 12:23:27;;;;;;;2.10;1.40;;;;;;;;;;4957643;29;20031;-74
2022/03/15 12:25:56;;;;;;;1.77;1.30;;;;;;;;;;4957503;29;20055;-76
2022/03/15 12:28:27;;;;;;;2.25;1.40;;;;;;;;;;4940796;29;20114;-74
2022/03/15 12:30:53;;;;;;;2.15;1.33;;;;;;;;;;4957577;29;20031;-73
2022/03/15 12:33:26;;;;;;;1.67;1.20;;;;;;;;;;4963630;28;20054;-72
2022/03/15 12:36:11;;;;;;;2.03;1.30;;;;;;;;;;4977123;28;20042;-77
2022/03/15 12:38:42;;;;;;;1.38;1.20;;;;;;;;;;4977003;28;20102;-74
2022/03/15 12:41:08;;;;;;;2.53;1.20;;;;;;;;;;4976608;28;20030;-70
2022/03/15 12:43:35;;;;;;;3.72;1.40;;;;;;;;;;4958536;28;20495;-75
2022/03/15 12:46:03;;;;;;;1.98;1.40;;;;;;;;;;4957617;29;20069;-73
2022/03/15 12:48:30;;;;;;;2.17;1.40;;;;;;;;;;4957213;29;20395;-74
2022/03/15 12:50:59;;;;;;;1.80;1.35;;;;;;;;;;4957379;29;20035;-77
2022/03/15 12:53:35;;;;;;;1.73;1.30;;;;;;;;;;4957472;29;20047;-75
2022/03/15 12:56:02;;;;;;;1.80;1.40;;;;;;;;;;4956999;29;20031;-72
2022/03/15 12:58:29;;;;;;;1.30;1.10;;;;;;;;;;4957574;29;20054;-75
2022/03/15 13:00:55;;;;;;;3.08;1.20;;;;;;;;;;4957142;29;20084;-74
2022/03/15 13:03:22;;;;;;;1.77;1.30;;;;;;;;;;4939906;29;20031;-72
2022/03/15 13:05:52;;;;;;;1.25;1.15;;;;;;;;;;4957025;28;20019;-75
2022/03/15 13:08:20;;;;;;;1.20;1.10;;;;;;;;;;4957256;29;20027;-76
2022/03/15 13:10:47;;;;;;;1.38;1.10;;;;;;;;;;4956426;29;20026;-74
2022/03/15 13:13:13;;;;;;;1.30;1.15;;;;;;;;;;4956942;29;20023;-73
2022/03/15 13:16:03;;;;;;;2.00;1.17;;;;;;;;;;4956971;29;20030;-76
2022/03/15 13:18:30;;;;;;;1.70;1.02;;;;;;;;;;4956833;29;20110;-73
2022/03/15 13:21:01;;;;;;;1.73;1.17;;;;;;;;;;4958942;28;20034;-74
2022/03/15 13:23:28;;;;;;;1.98;1.45;;;;;;;;;;4965701;28;20020;-74
2022/03/15 13:26:04;;;;;;;1.30;1.20;;;;;;;;;;4964834;28;20046;-76
2022/03/15 13:28:32;;;;;;;1.75;1.13;;;;;;;;;;4969309;28;20038;-75
2022/03/15 13:31:04;;;;;;;1.98;1.17;;;;;;;;;;4968139;28;20026;-75
2022/03/15 13:33:31;;;;;;;2.05;1.20;;;;;;;;;;4942032;29;20062;-73
2022/03/15 13:35:58;;;;;;;1.05;0.95;;;;;;;;;;4956649;29;20038;-74
2022/03/15 13:38:25;;;;;;;1.60;1.02;;;;;;;;;;4939370;29;20059;-74
2022/03/15 13:40:51;;;;;;;1.40;1.15;;;;;;;;;;4956593;29;20055;-75
2022/03/15 13:43:18;;;;;;;2.00;1.25;;;;;;;;;;4956507;28;20023;-76
2022/03/15 13:45:46;;;;;;;2.38;1.30;;;;;;;;;;4955979;29;20027;-76
2022/03/15 13:48:12;;;;;;;1.58;1.00;;;;;;;;;;4939280;29;20386;-76
2022/03/15 13:50:38;;;;;;;1.38;1.10;;;;;;;;;;4956173;29;20082;-77
2022/03/15 13:53:17;;;;;;;1.13;1.02;;;;;;;;;;4938382;29;20110;-74
2022/03/15 13:55:43;;;;;;;2.05;1.00;;;;;;;;;;4956181;29;20039;-74
2022/03/15 13:58:09;;;;;;;1.00;0.90;;;;;;;;;;4956267;29;20035;-73
2022/03/15 14:00:35;;;;;;;1.15;1.05;;;;;;;;;;4964333;28;20026;-74
2022/03/15 14:03:07;;;;;;;1.30;1.15;;;;;;;;;;4957539;28;20032;-76
2022/03/15 14:05:33;;;;;;;2.60;1.52;;;;;;;;;;4956052;29;20537;-74
2022/03/15 14:08:12;;;;;;;2.55;2.35;;;;;;;;;;4956116;29;20028;-72
2022/03/15 14:10:39;;;;;;;4.03;3.45;;;;;;;;;;4955773;29;20046;-76
2022/03/15 14:13:14;;;;;;;19.50;14.40;;;;;;;;;;4955346;29;20056;-73
2022/03/15 14:15:41;;;;;;;48.67;39.25;;;;;;;;;;4955615;28;20502;-76
2022/03/15 14:18:08;;;;;;;48.00;38.15;;;;;;;;;;4954783;28;20117;-75
2022/03/15 14:20:41;;;;;;;24.08;20.35;;;;;;;;;;4936032;29;20043;-76
2022/03/15 14:23:08;;;;;;;36.53;30.98;;;;;;;;;;4955658;29;20467;-76
2022/03/15 14:25:36;;;;;;;43.97;36.47;;;;;;;;;;4955314;29;20055;-75
2022/03/15 14:28:09;;;;;;;79.50;61.60;;;;;;;;;;4954496;29;20031;-76
2022/03/15 14:30:36;;;;;;;65.00;50.30;;;;;;;;;;4954875;29;20031;-75
2022/03/15 14:33:06;;;;;;;76.72;59.33;;;;;;;;;;4955288;28;20587;-74
2022/03/15 14:35:34;;;;;;;66.03;51.65;;;;;;;;;;4955469;29;20062;-75
2022/03/15 14:38:05;;;;;;;102.75;78.95;;;;;;;;;;4954449;29;20378;-73
2022/03/15 14:40:31;;;;;;;97.25;76.18;;;;;;;;;;4955472;29;20028;-75